Time;durP1;ratioP1;P1;durP2;ratioP2;P2;SDS_P1;SDS_P2;PMS_P1;PMS_P2;Temp;Humidity;BMP_temperature;BMP_pressure;BME280_temperature;BME280_humidity;BME280_pressure;Samples;Min_cycle;Max_cycle;Signal;HPM_P1;HPM_P2
2022/06/08 00:00:01;;;;;;;19.17;12.10;;;15.90;99.90;;;;;;4996931;28;20218;-81
2022/06/08 00:02:30;;;;;;;17.33;12.07;;;16.00;99.90;;;;;;4996830;28;20257;-81
2022/06/08 00:04:56;;;;;;;20.13;12.60;;;16.00;99.90;;;;;;4993399;28;20226;-80
2022/06/08 00:07:22;;;;;;;20.30;12.57;;;15.90;99.90;;;;;;4991562;28;20183;-80
2022/06/08 00:09:48;;;;;;;19.03;12.80;;;15.90;99.90;;;;;;4990933;28;20211;-80
2022/06/08 00:12:14;;;;;;;20.40;13.43;;;16.00;99.90;;;;;;4991115;28;20191;-81
2022/06/08 00:14:41;;;;;;;19.20;12.80;;;15.90;99.90;;;;;;4991228;28;20207;-81
2022/06/08 00:17:07;;;;;;;22.63;14.00;;;16.00;99.90;;;;;;4991323;28;20178;-81
2022/06/08 00:19:33;;;;;;;22.50;15.10;;;16.00;99.90;;;;;;4991255;28;20258;-81
2022/06/08 00:21:59;;;;;;;19.47;13.90;;;15.90;99.90;;;;;;4991033;28;20291;-80
2022/06/08 00:24:24;;;;;;;23.17;15.57;;;15.90;99.90;;;;;;4991246;28;20318;-81
2022/06/08 00:26:50;;;;;;;24.40;15.57;;;15.90;99.90;;;;;;4991261;28;20636;-80
2022/06/08 00:29:16;;;;;;;24.10;15.17;;;15.90;99.90;;;;;;4991185;28;20619;-81
2022/06/08 00:31:42;;;;;;;24.77;15.40;;;15.80;99.90;;;;;;4991635;28;20199;-81
2022/06/08 00:34:08;;;;;;;29.27;17.63;;;15.90;99.90;;;;;;4991898;28;20270;-81
2022/06/08 00:36:33;;;;;;;29.90;17.07;;;15.80;99.90;;;;;;4991737;28;20187;-80
2022/06/08 00:38:59;;;;;;;30.73;19.20;;;15.90;99.90;;;;;;4991735;28;20848;-80
2022/06/08 00:41:43;;;;;;;28.33;18.00;;;16.00;99.90;;;;;;4991347;28;20694;-80
2022/06/08 00:44:17;;;;;;;29.07;18.60;;;16.00;99.90;;;;;;4991800;28;20266;-81
2022/06/08 00:46:44;;;;;;;29.77;18.00;;;15.90;99.90;;;;;;4991692;28;20190;-81
2022/06/08 00:49:27;;;;;;;29.53;17.33;;;16.00;99.90;;;;;;4991483;28;20783;-81
2022/06/08 00:51:53;;;;;;;32.07;18.47;;;16.00;99.90;;;;;;4992522;28;20203;-80
2022/06/08 00:54:31;;;;;;;34.10;19.87;;;16.00;99.90;;;;;;4991748;28;20176;-81
2022/06/08 00:57:24;;;;;;;31.17;19.03;;;15.90;99.90;;;;;;4991533;28;20229;-81
2022/06/08 00:59:59;;;;;;;33.67;21.13;;;15.90;99.90;;;;;;4993364;28;20177;-80
2022/06/08 01:02:25;;;;;;;31.93;20.20;;;15.90;99.90;;;;;;4994507;28;20636;-80
2022/06/08 01:05:22;;;;;;;34.43;20.43;;;15.90;99.90;;;;;;4980955;28;20219;-81
2022/06/08 01:07:50;;;;;;;36.93;21.20;;;15.90;99.90;;;;;;4997265;28;20238;-81
2022/06/08 01:10:21;;;;;;;38.53;20.97;;;15.80;99.90;;;;;;4998372;28;20175;-81
2022/06/08 01:12:48;;;;;;;40.40;22.07;;;15.80;99.90;;;;;;4997608;28;20234;-80
2022/06/08 01:15:18;;;;;;;40.20;22.83;;;15.70;99.90;;;;;;4998598;28;20175;-81
2022/06/08 01:17:44;;;;;;;34.90;22.23;;;15.70;99.90;;;;;;4998064;28;20171;-81
2022/06/08 01:20:11;;;;;;;39.07;21.93;;;15.70;99.90;;;;;;4997820;28;20167;-81
2022/06/08 01:22:38;;;;;;;34.60;20.90;;;15.60;99.90;;;;;;4997846;28;20194;-81
2022/06/08 01:25:06;;;;;;;40.87;23.40;;;15.60;99.90;;;;;;4998387;28;20182;-81
2022/06/08 01:28:08;;;;;;;37.33;21.47;;;15.60;99.90;;;;;;4997032;28;20181;-81
2022/06/08 01:30:58;;;;;;;39.47;21.77;;;15.50;99.90;;;;;;4994845;28;20553;-80
2022/06/08 01:33:41;;;;;;;40.00;23.17;;;15.40;99.90;;;;;;4994427;28;20171;-80
2022/06/08 01:36:06;;;;;;;38.10;23.30;;;15.50;99.90;;;;;;4994655;28;20167;-80
2022/06/08 01:38:42;;;;;;;43.40;24.17;;;15.50;99.90;;;;;;4994764;28;20201;-80
2022/06/08 01:41:50;;;;;;;40.73;22.70;;;15.50;99.90;;;;;;4994614;28;20289;-80
2022/06/08 01:44:28;;;;;;;37.13;22.50;;;15.50;99.90;;;;;;4994597;28;20176;-81
2022/06/08 01:46:56;;;;;;;40.10;23.83;;;15.50;99.90;;;;;;4994596;28;20636;-80
2022/06/08 01:49:39;;;;;;;45.07;23.97;;;15.60;99.90;;;;;;4994280;28;20199;-81
2022/06/08 01:52:05;;;;;;;42.50;24.23;;;15.60;99.90;;;;;;4994007;28;20222;-80
2022/06/08 01:54:55;;;;;;;39.87;23.80;;;15.60;99.90;;;;;;4994367;28;20642;-80
2022/06/08 01:57:32;;;;;;;44.87;24.57;;;15.60;99.90;;;;;;4994385;28;20229;-80
2022/06/08 02:00:13;;;;;;;42.87;24.97;;;15.60;99.90;;;;;;4994446;28;20206;-81
2022/06/08 02:03:06;;;;;;;44.53;25.23;;;15.60;99.90;;;;;;4997520;28;20612;-80
2022/06/08 02:05:44;;;;;;;43.97;25.20;;;15.50;99.90;;;;;;4994182;28;20623;-81
2022/06/08 02:08:20;;;;;;;46.63;25.60;;;15.40;99.90;;;;;;4993341;28;20675;-80
2022/06/08 02:11:08;;;;;;;44.10;25.73;;;15.40;99.90;;;;;;4992402;28;20174;-81
2022/06/08 02:13:33;;;;;;;47.53;26.70;;;15.40;99.90;;;;;;4993701;28;20191;-80
2022/06/08 02:16:09;;;;;;;51.10;26.33;;;15.30;99.90;;;;;;4993603;28;20170;-81
2022/06/08 02:18:43;;;;;;;45.17;25.93;;;15.30;99.90;;;;;;4993566;28;20207;-80
2022/06/08 02:21:21;;;;;;;46.87;25.83;;;15.30;99.90;;;;;;4993189;28;20199;-80
2022/06/08 02:23:55;;;;;;;47.70;25.97;;;15.20;99.90;;;;;;4994559;28;20249;-80
2022/06/08 02:26:29;;;;;;;43.50;26.20;;;15.10;99.90;;;;;;4994494;28;20242;-80
2022/06/08 02:29:01;;;;;;;45.27;25.80;;;15.10;99.90;;;;;;4993173;28;20198;-81
2022/06/08 02:31:32;;;;;;;50.00;27.70;;;14.90;99.90;;;;;;4993032;28;20202;-80
2022/06/08 02:37:17;;;;;;;46.33;27.13;;;15.00;99.90;;;;;;4992838;28;20199;-80
2022/06/08 02:39:47;;;;;;;46.23;27.27;;;15.00;99.90;;;;;;4993870;28;20189;-81
2022/06/08 02:42:19;;;;;;;52.93;28.57;;;14.90;99.90;;;;;;4994680;28;20218;-80
2022/06/08 02:44:47;;;;;;;50.43;28.90;;;14.90;99.90;;;;;;4994185;28;20588;-81
2022/06/08 02:47:31;;;;;;;53.87;29.87;;;14.90;99.90;;;;;;4993797;28;20182;-81
2022/06/08 02:50:18;;;;;;;56.77;29.87;;;14.90;99.90;;;;;;4994205;28;20224;-81
2022/06/08 02:52:47;;;;;;;62.00;32.13;;;14.90;99.90;;;;;;4993108;28;20229;-80
2022/06/08 02:55:27;;;;;;;56.83;31.70;;;14.90;99.90;;;;;;4993548;28;20179;-80
2022/06/08 02:58:27;;;;;;;62.63;32.97;;;14.90;99.90;;;;;;4993832;28;20169;-80
2022/06/08 03:01:00;;;;;;;58.00;31.43;;;14.80;99.90;;;;;;4992876;28;20201;-81
2022/06/08 03:03:48;;;;;;;66.07;34.10;;;14.90;99.90;;;;;;4993641;28;20175;-80
2022/06/08 03:06:21;;;;;;;62.10;33.03;;;14.90;99.90;;;;;;4995017;28;20202;-80
2022/06/08 03:08:53;;;;;;;66.80;34.67;;;14.90;99.90;;;;;;4993381;28;20199;-80
2022/06/08 03:11:20;;;;;;;66.17;34.93;;;15.00;99.90;;;;;;4992994;28;20191;-80
2022/06/08 03:13:54;;;;;;;67.97;34.27;;;15.10;99.90;;;;;;4993340;28;20175;-81
2022/06/08 03:16:34;;;;;;;69.13;35.13;;;15.00;99.90;;;;;;4993661;28;20179;-81
2022/06/08 03:19:00;;;;;;;64.80;34.83;;;14.90;99.90;;;;;;4993302;28;20206;-80
2022/06/08 03:21:27;;;;;;;66.23;34.90;;;15.00;99.90;;;;;;4992524;28;20195;-80
2022/06/08 03:23:54;;;;;;;73.40;36.57;;;15.00;99.90;;;;;;4993008;28;20188;-80
2022/06/08 03:26:23;;;;;;;77.33;36.83;;;15.00;99.90;;;;;;4993449;28;20181;-80
2022/06/08 03:28:49;;;;;;;81.50;38.90;;;15.00;99.90;;;;;;4992977;28;20254;-80
2022/06/08 03:31:15;;;;;;;84.50;37.93;;;15.10;99.90;;;;;;4993027;28;20567;-81
2022/06/08 03:33:41;;;;;;;82.77;38.90;;;15.10;99.90;;;;;;4994710;28;20174;-80
2022/06/08 03:36:07;;;;;;;88.30;39.83;;;15.20;99.90;;;;;;4993115;28;20171;-80
2022/06/08 03:38:33;;;;;;;86.10;39.63;;;15.20;99.90;;;;;;4993176;28;20171;-80
2022/06/08 03:40:58;;;;;;;89.60;40.50;;;15.20;99.90;;;;;;4993371;28;20286;-80
2022/06/08 03:43:24;;;;;;;92.77;41.30;;;15.20;99.90;;;;;;4993637;28;20615;-80
2022/06/08 03:45:57;;;;;;;94.37;40.43;;;15.20;99.90;;;;;;4993117;28;20187;-80
2022/06/08 03:48:23;;;;;;;92.00;40.67;;;15.20;99.90;;;;;;4993885;28;20210;-80
2022/06/08 03:50:52;;;;;;;92.50;39.93;;;15.30;99.90;;;;;;4993481;28;20171;-80
2022/06/08 03:53:30;;;;;;;94.00;40.90;;;15.30;99.90;;;;;;4993507;28;20556;-80
2022/06/08 03:55:57;;;;;;;89.93;40.73;;;15.30;99.90;;;;;;4997482;23;20219;-76
2022/06/08 03:58:24;;;;;;;97.63;40.93;;;15.20;99.90;;;;;;4973191;28;20216;-78
2022/06/08 04:00:50;;;;;;;105.10;42.97;;;15.20;99.90;;;;;;4973727;28;20192;-77
2022/06/08 04:03:17;;;;;;;96.77;42.70;;;15.20;99.90;;;;;;4972520;28;20227;-77
2022/06/08 04:05:42;;;;;;;95.37;41.13;;;15.20;99.90;;;;;;4973083;28;20269;-78
2022/06/08 04:08:09;;;;;;;100.00;41.80;;;15.20;99.90;;;;;;4973676;28;20298;-79
2022/06/08 04:10:35;;;;;;;87.80;39.83;;;15.30;99.90;;;;;;4972843;28;20699;-79
2022/06/08 04:13:01;;;;;;;90.80;39.60;;;15.10;99.90;;;;;;4973452;28;20176;-77
2022/06/08 04:15:42;;;;;;;86.87;39.03;;;15.10;99.90;;;;;;4973311;28;20176;-76
2022/06/08 04:18:16;;;;;;;93.23;40.50;;;15.10;99.90;;;;;;4973365;28;20675;-76
2022/06/08 04:20:43;;;;;;;90.43;40.30;;;15.10;99.90;;;;;;4972685;28;20176;-76
2022/06/08 04:23:10;;;;;;;87.17;39.43;;;15.20;99.90;;;;;;4972835;28;20183;-77
2022/06/08 04:25:38;;;;;;;90.70;39.63;;;15.30;99.90;;;;;;4972779;28;20176;-77
2022/06/08 04:28:03;;;;;;;88.20;39.47;;;15.30;99.90;;;;;;4972578;28;20257;-76
2022/06/08 04:30:29;;;;;;;86.97;39.10;;;15.30;99.90;;;;;;4972902;28;20671;-78
2022/06/08 04:32:55;;;;;;;77.30;36.60;;;15.30;99.90;;;;;;4972488;28;20192;-78
2022/06/08 04:35:21;;;;;;;83.80;36.03;;;15.30;99.90;;;;;;4975539;28;20176;-77
2022/06/08 04:37:46;;;;;;;79.03;35.33;;;15.30;99.90;;;;;;4976049;28;20171;-75
2022/06/08 04:40:15;;;;;;;77.13;34.60;;;15.40;99.90;;;;;;4976472;28;20714;-79
2022/06/08 04:42:41;;;;;;;80.80;35.57;;;15.50;99.90;;;;;;4975883;28;20691;-78
2022/06/08 04:45:08;;;;;;;78.03;36.97;;;15.50;99.90;;;;;;4975785;28;20601;-79
2022/06/08 04:47:34;;;;;;;73.13;34.90;;;15.60;99.90;;;;;;4976011;28;20176;-78
2022/06/08 04:50:00;;;;;;;75.40;35.20;;;15.60;99.90;;;;;;4976662;28;20200;-76
2022/06/08 04:52:26;;;;;;;72.67;34.83;;;15.70;99.90;;;;;;4975470;28;20204;-76
2022/06/08 04:54:52;;;;;;;83.03;35.80;;;15.70;99.90;;;;;;4976452;28;20176;-76
2022/06/08 04:57:17;;;;;;;76.97;34.90;;;15.70;99.90;;;;;;4976725;28;20184;-75
2022/06/08 04:59:44;;;;;;;71.23;35.47;;;15.70;99.90;;;;;;4975964;28;20183;-77
2022/06/08 05:02:10;;;;;;;66.67;34.93;;;15.70;99.90;;;;;;4976212;28;20688;-77
2022/06/08 05:04:36;;;;;;;77.50;36.83;;;15.70;99.90;;;;;;4976190;28;20267;-77
2022/06/08 05:07:02;;;;;;;73.00;34.97;;;15.70;99.90;;;;;;4976136;28;20263;-78
2022/06/08 05:09:28;;;;;;;71.77;34.23;;;15.80;99.90;;;;;;4975617;28;20221;-78
2022/06/08 05:11:53;;;;;;;62.67;32.33;;;15.80;99.90;;;;;;4975202;28;20661;-78
2022/06/08 05:14:19;;;;;;;62.60;33.10;;;15.80;99.90;;;;;;4975438;28;20179;-78
2022/06/08 05:16:48;;;;;;;62.97;31.33;;;16.00;99.90;;;;;;4975747;28;20263;-76
2022/06/08 05:19:13;;;;;;;49.60;28.40;;;16.30;99.90;;;;;;4975400;28;20660;-78
2022/06/08 05:21:40;;;;;;;44.83;26.37;;;16.60;99.90;;;;;;4975765;28;20204;-78
2022/06/08 05:24:06;;;;;;;41.77;24.47;;;16.70;99.90;;;;;;4975130;28;20184;-78
2022/06/08 05:26:31;;;;;;;42.90;24.83;;;16.90;99.90;;;;;;4975838;28;20725;-75
2022/06/08 05:28:57;;;;;;;39.87;23.90;;;16.80;99.90;;;;;;4975480;28;20198;-76
2022/06/08 05:31:22;;;;;;;38.73;21.80;;;16.80;99.90;;;;;;4975760;28;20201;-77
2022/06/08 05:33:48;;;;;;;35.13;21.77;;;16.90;99.90;;;;;;4975553;28;20168;-77
2022/06/08 05:36:16;;;;;;;36.60;22.43;;;16.80;99.90;;;;;;4975591;28;20183;-77
2022/06/08 05:38:42;;;;;;;36.53;20.80;;;16.80;99.90;;;;;;4974728;28;20184;-76
2022/06/08 05:41:07;;;;;;;33.30;19.83;;;16.80;99.90;;;;;;4974478;28;20196;-77
2022/06/08 05:43:33;;;;;;;32.90;20.20;;;16.90;99.90;;;;;;4975962;28;20198;-78
2022/06/08 05:45:59;;;;;;;31.67;19.27;;;17.00;99.90;;;;;;4975551;28;20179;-78
2022/06/08 05:48:25;;;;;;;28.53;17.87;;;17.30;99.90;;;;;;4974663;28;20695;-78
2022/06/08 05:50:50;;;;;;;26.93;16.90;;;17.50;99.90;;;;;;4974692;28;20180;-80
2022/06/08 05:53:16;;;;;;;27.27;16.53;;;17.60;99.90;;;;;;4973879;28;20267;-79
2022/06/08 05:55:43;;;;;;;21.10;13.50;;;18.00;99.90;;;;;;4974369;28;20576;-79
2022/06/08 05:58:10;;;;;;;20.10;13.37;;;18.40;99.90;;;;;;4973719;28;20172;-78
2022/06/08 06:00:38;;;;;;;20.98;12.98;;;18.70;99.90;;;;;;4974483;28;20519;-76
2022/06/08 06:03:05;;;;;;;16.63;11.77;;;18.90;99.90;;;;;;4974680;28;20176;-76
2022/06/08 06:05:32;;;;;;;15.85;10.43;;;18.90;99.90;;;;;;4974415;28;20254;-78
2022/06/08 06:07:59;;;;;;;16.77;11.40;;;18.50;99.90;;;;;;4974462;28;20175;-75
2022/06/08 06:10:27;;;;;;;19.13;11.95;;;18.30;99.90;;;;;;4974304;28;20640;-76
2022/06/08 06:12:54;;;;;;;18.35;11.50;;;18.60;99.90;;;;;;4973806;28;20208;-76
2022/06/08 06:15:21;;;;;;;16.15;10.18;;;19.30;99.90;;;;;;4974729;28;20175;-76
2022/06/08 06:17:47;;;;;;;13.45;10.05;;;19.50;99.90;;;;;;4973926;28;20180;-77
2022/06/08 06:20:13;;;;;;;15.52;9.35;;;20.00;99.90;;;;;;4973915;28;20187;-78
2022/06/08 06:22:39;;;;;;;16.17;9.18;;;20.30;99.90;;;;;;4973945;28;20192;-78
2022/06/08 06:25:07;;;;;;;11.88;8.30;;;20.10;99.90;;;;;;4974479;28;20211;-78
2022/06/08 06:27:33;;;;;;;10.95;8.18;;;20.10;99.90;;;;;;4972492;28;20539;-78
2022/06/08 06:29:59;;;;;;;12.60;7.63;;;20.10;99.90;;;;;;4972700;28;20203;-76
2022/06/08 06:32:29;;;;;;;9.95;8.10;;;20.30;99.90;;;;;;4973510;28;20200;-78
2022/06/08 06:34:56;;;;;;;9.13;6.93;;;20.20;99.90;;;;;;4974083;28;20651;-78
2022/06/08 06:37:22;;;;;;;13.32;8.20;;;20.30;99.90;;;;;;4973679;28;20180;-77
2022/06/08 06:39:47;;;;;;;11.70;8.23;;;20.30;99.90;;;;;;4973084;28;20687;-77
2022/06/08 06:42:20;;;;;;;11.18;7.38;;;20.40;99.90;;;;;;4972858;28;20238;-78
2022/06/08 06:44:46;;;;;;;10.85;7.22;;;20.20;99.90;;;;;;4974360;28;20634;-78
2022/06/08 06:47:12;;;;;;;8.00;6.78;;;20.40;99.90;;;;;;4974346;28;20467;-79
2022/06/08 06:49:38;;;;;;;12.13;8.05;;;20.50;99.90;;;;;;4973508;28;20203;-77
2022/06/08 06:52:04;;;;;;;8.10;6.05;;;20.40;99.90;;;;;;4973120;28;20191;-78
2022/06/08 06:54:31;;;;;;;9.73;6.13;;;20.30;99.90;;;;;;4972961;28;20202;-77
2022/06/08 06:56:57;;;;;;;7.57;5.53;;;20.40;99.90;;;;;;4972682;28;20192;-76
2022/06/08 06:59:22;;;;;;;10.88;5.50;;;20.40;99.90;;;;;;4973061;28;20183;-78
2022/06/08 07:01:48;;;;;;;11.13;4.97;;;20.60;99.90;;;;;;4971798;28;20195;-78
2022/06/08 07:04:17;;;;;;;7.63;5.50;;;20.70;99.90;;;;;;4972836;28;20187;-77
2022/06/08 07:06:42;;;;;;;10.95;5.60;;;20.70;99.90;;;;;;4972473;28;20550;-77
2022/06/08 07:09:08;;;;;;;10.10;5.93;;;20.60;99.90;;;;;;4972773;28;20192;-77
2022/06/08 07:11:35;;;;;;;6.07;4.90;;;20.70;99.90;;;;;;4972413;28;20238;-78
2022/06/08 07:14:04;;;;;;;7.00;5.10;;;20.50;99.90;;;;;;4972707;28;20176;-78
2022/06/08 07:16:31;;;;;;;6.65;4.47;;;20.50;99.90;;;;;;4973482;28;20171;-79
2022/06/08 07:18:56;;;;;;;5.43;4.20;;;20.70;99.90;;;;;;4972867;28;20210;-78
2022/06/08 07:21:22;;;;;;;6.18;4.22;;;20.70;99.90;;;;;;4973298;28;20194;-78
2022/06/08 07:23:48;;;;;;;6.85;4.53;;;20.90;99.90;;;;;;4972867;28;20235;-78
2022/06/08 07:26:14;;;;;;;6.57;4.00;;;20.90;99.90;;;;;;4971386;28;20693;-78
2022/06/08 07:28:40;;;;;;;6.72;3.90;;;20.50;99.90;;;;;;4972357;28;20200;-78
2022/06/08 07:31:06;;;;;;;7.43;4.40;;;20.60;99.90;;;;;;4973340;28;20195;-77
2022/06/08 07:33:34;;;;;;;5.65;4.10;;;20.50;99.90;;;;;;4970741;28;20185;-76
2022/06/08 07:36:00;;;;;;;3.50;3.17;;;20.40;99.90;;;;;;4972048;28;20172;-77
2022/06/08 07:38:26;;;;;;;6.07;3.40;;;20.60;99.90;;;;;;4972517;28;20183;-76
2022/06/08 07:40:52;;;;;;;5.28;3.25;;;20.40;99.90;;;;;;4972618;28;20172;-78
2022/06/08 07:43:19;;;;;;;3.17;2.88;;;20.20;99.90;;;;;;4972081;28;20180;-77
2022/06/08 07:45:45;;;;;;;3.10;2.78;;;20.60;99.90;;;;;;4972318;28;20179;-75
2022/06/08 07:50:55;;;;;;;5.88;2.90;;;20.70;99.90;;;;;;4974356;28;20672;-76
2022/06/08 07:53:20;;;;;;;4.68;3.03;;;20.90;99.90;;;;;;4973825;28;20172;-77
2022/06/08 07:55:46;;;;;;;3.13;2.85;;;20.50;99.90;;;;;;4972548;28;20200;-78
2022/06/08 07:58:12;;;;;;;4.25;2.90;;;20.60;99.90;;;;;;4972754;28;20179;-76
2022/06/08 08:00:37;;;;;;;6.20;2.70;;;20.70;99.90;;;;;;4972541;28;20179;-78
2022/06/08 08:03:04;;;;;;;4.55;3.28;;;20.80;99.90;;;;;;4972491;28;20495;-77
2022/06/08 08:05:30;;;;;;;4.18;2.80;;;20.70;99.90;;;;;;4972213;28;20668;-79
2022/06/08 08:07:56;;;;;;;8.00;3.20;;;20.70;99.90;;;;;;4973295;28;20180;-79
2022/06/08 08:10:25;;;;;;;5.85;3.53;;;20.70;99.90;;;;;;4975994;28;20203;-78
2022/06/08 08:12:55;;;;;;;3.78;2.60;;;21.50;99.90;;;;;;4975938;28;20196;-77
2022/06/08 08:15:23;;;;;;;6.00;2.92;;;22.00;99.90;;;;;;4976037;28;20180;-77
2022/06/08 08:17:49;;;;;;;3.58;2.78;;;21.90;99.90;;;;;;4977022;28;20552;-77
2022/06/08 08:20:17;;;;;;;5.10;3.38;;;22.00;99.90;;;;;;4975916;28;20180;-79
2022/06/08 08:22:43;;;;;;;4.60;3.20;;;21.60;99.90;;;;;;4975709;28;20203;-78
2022/06/08 08:25:12;;;;;;;3.58;2.75;;;22.10;99.90;;;;;;4976395;28;20208;-78
2022/06/08 08:27:38;;;;;;;3.78;2.47;;;22.50;99.90;;;;;;4975350;28;20187;-79
2022/06/08 08:30:04;;;;;;;3.88;2.70;;;22.60;99.90;;;;;;4975306;28;20195;-78
2022/06/08 08:32:30;;;;;;;3.13;2.50;;;22.50;99.90;;;;;;4976384;28;20221;-82
2022/06/08 08:34:56;;;;;;;2.30;2.13;;;21.80;99.90;;;;;;4975609;28;21062;-83
2022/06/08 08:37:21;;;;;;;5.32;2.00;;;21.90;99.90;;;;;;4976807;28;20481;-83
2022/06/08 08:39:47;;;;;;;5.95;2.83;;;21.90;99.90;;;;;;4976860;28;20183;-81
2022/06/08 08:42:22;;;;;;;4.88;2.72;;;22.00;99.90;;;;;;4974540;28;20196;-77
2022/06/08 08:45:05;;;;;;;4.00;2.50;;;21.40;99.90;;;;;;4974449;28;20187;-77
2022/06/08 08:48:09;;;;;;;2.60;1.92;;;21.80;99.90;;;;;;4975466;28;20223;-77
2022/06/08 08:50:49;;;;;;;2.10;1.75;;;22.60;99.90;;;;;;4975283;28;20179;-77
2022/06/08 08:53:15;;;;;;;3.45;2.10;;;22.40;99.90;;;;;;4974983;28;20168;-77
2022/06/08 08:56:03;;;;;;;6.35;2.42;;;23.20;99.90;;;;;;4974401;28;20183;-76
2022/06/08 08:58:34;;;;;;;2.40;1.90;;;23.50;99.90;;;;;;4974139;28;20653;-76
2022/06/08 09:01:09;;;;;;;3.90;2.40;;;22.80;99.90;;;;;;4973372;28;20204;-76
2022/06/08 09:03:39;;;;;;;2.55;2.17;;;23.10;99.90;;;;;;4974084;28;20168;-77
2022/06/08 09:06:18;;;;;;;5.18;2.47;;;23.10;99.90;;;;;;4973730;28;20184;-77
2022/06/08 09:08:48;;;;;;;2.83;1.80;;;23.00;99.90;;;;;;4973780;28;20668;-76
2022/06/08 09:11:22;;;;;;;1.98;1.80;;;23.30;99.90;;;;;;4973508;28;20208;-76
2022/06/08 09:13:53;;;;;;;3.88;2.60;;;23.00;99.90;;;;;;4973236;28;20262;-76
2022/06/08 09:16:35;;;;;;;6.28;2.15;;;22.40;99.90;;;;;;4973823;28;20649;-76
2022/06/08 09:19:20;;;;;;;5.50;2.20;;;22.00;99.90;;;;;;4973568;28;20203;-77
2022/06/08 09:21:46;;;;;;;4.05;2.00;;;22.10;99.90;;;;;;4973371;28;20200;-77
2022/06/08 09:24:40;;;;;;;5.63;1.85;;;21.90;99.90;;;;;;4975207;28;20679;-75
2022/06/08 09:27:33;;;;;;;3.80;2.13;;;21.80;99.90;;;;;;4973246;28;20176;-77
2022/06/08 09:30:08;;;;;;;7.15;1.67;;;22.40;99.90;;;;;;4973720;28;20234;-78
2022/06/08 09:32:44;;;;;;;2.33;1.60;;;23.30;99.90;;;;;;4973531;28;20426;-78
2022/06/08 09:35:41;;;;;;;1.83;1.60;;;23.40;99.90;;;;;;4974710;28;20171;-79
2022/06/08 09:38:12;;;;;;;3.78;1.50;;;23.10;99.90;;;;;;4967707;28;20676;-80
2022/06/08 09:40:44;;;;;;;4.68;1.48;;;23.50;99.90;;;;;;4975675;28;20212;-80
2022/06/08 09:43:28;;;;;;;3.95;1.33;;;22.90;99.90;;;;;;4975717;28;20184;-81
2022/06/08 09:45:59;;;;;;;3.50;1.65;;;24.20;99.90;;;;;;4974771;28;20211;-82
2022/06/08 09:51:45;;;;;;;1.55;1.30;;;24.00;99.90;;;;;;4976349;28;20282;-79
2022/06/08 09:54:25;;;;;;;2.95;1.30;;;24.30;99.90;;;;;;4975243;28;20172;-82
2022/06/08 09:57:28;;;;;;;2.28;1.30;;;24.30;99.30;;;;;;5000723;23;20246;-89
2022/06/08 09:59:57;;;;;;;3.20;1.60;;;23.30;99.90;;;;;;5024224;28;20202;-88
2022/06/08 10:02:31;;;;;;;4.38;1.20;;;22.80;99.90;;;;;;5025676;28;20226;-88
2022/06/08 10:05:16;;;;;;;1.52;1.15;;;22.90;99.90;;;;;;5027225;28;20179;-90
2022/06/08 10:07:58;;;;;;;2.63;1.00;;;23.10;99.90;;;;;;5026410;28;20178;-88
2022/06/08 10:10:34;;;;;;;2.97;1.30;;;24.00;99.90;;;;;;4994667;28;20736;-88
2022/06/08 10:13:05;;;;;;;2.72;1.20;;;25.30;99.90;;;;;;4992787;28;20175;-89
2022/06/08 10:15:38;;;;;;;1.30;1.23;;;24.00;98.20;;;;;;4992492;28;20560;-88
2022/06/08 10:18:27;;;;;;;2.08;1.10;;;24.30;97.70;;;;;;4993611;28;20172;-88
2022/06/08 10:21:17;;;;;;;3.95;1.17;;;24.10;98.40;;;;;;5025156;28;20179;-90
2022/06/08 10:23:53;;;;;;;2.08;0.95;;;23.70;98.60;;;;;;4992765;28;20690;-88
2022/06/08 10:26:22;;;;;;;1.00;1.00;;;23.40;98.80;;;;;;5026926;28;20194;-88
2022/06/08 10:28:58;;;;;;;4.10;1.15;;;22.70;99.90;;;;;;5025353;28;20782;-88
2022/06/08 10:31:34;;;;;;;1.42;0.90;;;22.50;99.80;;;;;;4992717;28;20171;-89
2022/06/08 10:34:06;;;;;;;2.97;1.10;;;22.60;99.90;;;;;;5027508;28;20174;-88
2022/06/08 10:36:34;;;;;;;1.13;1.08;;;22.30;99.70;;;;;;4997985;28;20202;-88
2022/06/08 10:39:02;;;;;;;5.18;1.20;;;21.90;99.90;;;;;;5025216;28;20249;-88
2022/06/08 10:44:46;;;;;;;4.35;1.10;;;22.00;99.90;;;;;;4993417;28;20179;-87
2022/06/08 10:47:11;;;;;;;2.08;1.23;;;21.70;99.90;;;;;;4992204;28;20179;-87
2022/06/08 10:49:37;;;;;;;3.08;1.30;;;22.10;99.90;;;;;;5024889;28;20202;-87
2022/06/08 10:52:28;;;;;;;1.80;1.27;;;21.90;99.90;;;;;;5024389;28;20199;-86
2022/06/08 10:55:13;;;;;;;1.20;0.90;;;21.80;99.90;;;;;;4994844;28;20171;-87
2022/06/08 10:57:50;;;;;;;2.92;1.20;;;21.70;99.90;;;;;;5001370;28;20686;-87
2022/06/08 11:00:18;;;;;;;2.05;1.30;;;21.90;99.90;;;;;;5034927;28;20202;-87
2022/06/08 11:02:52;;;;;;;5.28;1.35;;;21.80;99.90;;;;;;5033693;28;20175;-87
2022/06/08 11:05:34;;;;;;;2.63;1.17;;;22.00;99.90;;;;;;4999384;28;20202;-87
2022/06/08 11:08:06;;;;;;;2.03;1.02;;;21.90;99.90;;;;;;5029065;28;20175;-86
2022/06/08 11:10:54;;;;;;;1.27;1.00;;;21.80;99.90;;;;;;4998050;28;20206;-87
2022/06/08 11:13:25;;;;;;;3.63;1.17;;;21.70;99.90;;;;;;4994391;28;20178;-88
2022/06/08 11:16:14;;;;;;;6.25;1.60;;;21.40;99.90;;;;;;5028011;28;20647;-88
2022/06/08 11:18:50;;;;;;;1.38;1.27;;;21.50;99.90;;;;;;5025059;28;20203;-88
2022/06/08 11:21:45;;;;;;;2.03;1.15;;;21.40;99.90;;;;;;5022793;28;20194;-87
2022/06/08 11:24:30;;;;;;;3.90;1.30;;;21.40;99.90;;;;;;4991997;28;20203;-87
2022/06/08 11:27:28;;;;;;;4.30;1.30;;;21.30;99.90;;;;;;5023470;28;20175;-88
2022/06/08 11:30:07;;;;;;;1.50;1.15;;;21.20;99.90;;;;;;5023125;28;20722;-88
2022/06/08 11:32:32;;;;;;;1.67;1.20;;;21.20;99.90;;;;;;4991827;28;20178;-88
2022/06/08 11:35:25;;;;;;;3.95;1.30;;;21.20;99.90;;;;;;4991945;28;20765;-87
2022/06/08 11:38:16;;;;;;;4.93;1.20;;;21.30;99.90;;;;;;5023971;28;20176;-87
2022/06/08 11:40:43;;;;;;;1.20;1.10;;;21.30;99.90;;;;;;5024339;28;20171;-87
2022/06/08 11:43:13;;;;;;;2.58;1.10;;;21.30;99.90;;;;;;4992251;28;20167;-87
2022/06/08 11:45:47;;;;;;;3.92;1.10;;;21.50;99.90;;;;;;5024595;28;20195;-87
2022/06/08 11:48:19;;;;;;;1.33;1.00;;;21.60;99.90;;;;;;5023926;28;20182;-87
2022/06/08 11:50:48;;;;;;;3.65;1.10;;;21.50;99.90;;;;;;5023471;28;20172;-87
2022/06/08 11:53:26;;;;;;;1.88;1.05;;;21.30;99.90;;;;;;4993873;28;20179;-87
2022/06/08 11:56:10;;;;;;;3.60;1.40;;;21.50;99.90;;;;;;4994439;28;20540;-87
2022/06/08 11:58:36;;;;;;;1.40;1.02;;;21.50;99.90;;;;;;5023862;28;20207;-87
2022/06/08 12:01:20;;;;;;;1.52;1.30;;;21.80;99.90;;;;;;5021576;28;20262;-88
2022/06/08 12:03:50;;;;;;;3.10;1.30;;;21.70;99.90;;;;;;4992218;28;20198;-88
2022/06/08 12:06:24;;;;;;;2.60;1.10;;;21.80;99.90;;;;;;4993776;28;20172;-86
2022/06/08 12:09:20;;;;;;;4.43;1.60;;;21.60;99.90;;;;;;5024921;28;20214;-87
2022/06/08 12:11:49;;;;;;;2.92;1.33;;;21.90;99.90;;;;;;4981639;28;20183;-86
2022/06/08 12:14:28;;;;;;;3.17;1.33;;;22.00;99.90;;;;;;5023432;28;20178;-87
2022/06/08 12:16:58;;;;;;;8.07;1.60;;;22.00;99.90;;;;;;5023551;28;20185;-87
2022/06/08 12:19:26;;;;;;;3.88;1.23;;;21.80;99.90;;;;;;5023367;28;20281;-88
2022/06/08 12:22:10;;;;;;;3.15;1.48;;;22.00;99.90;;;;;;5022671;28;20176;-87
2022/06/08 12:24:36;;;;;;;2.47;1.25;;;22.10;99.90;;;;;;5023147;28;20175;-87
2022/06/08 12:27:20;;;;;;;1.38;1.20;;;22.10;99.90;;;;;;4989904;28;20218;-88
2022/06/08 12:29:57;;;;;;;5.13;1.42;;;21.90;99.90;;;;;;4998190;23;20250;-77
2022/06/08 12:32:29;;;;;;;5.72;1.40;;;21.90;99.90;;;;;;5022710;28;20198;-76
2022/06/08 12:35:06;;;;;;;2.00;1.40;;;22.40;99.90;;;;;;5022872;28;20175;-76
2022/06/08 12:37:35;;;;;;;5.57;1.40;;;22.20;99.90;;;;;;5022784;28;20266;-76
2022/06/08 12:40:16;;;;;;;2.15;1.20;;;22.40;99.90;;;;;;5022070;28;20183;-76
2022/06/08 12:42:50;;;;;;;2.15;1.17;;;22.60;99.90;;;;;;5022211;28;20199;-77
2022/06/08 12:45:36;;;;;;;6.32;1.45;;;22.90;99.90;;;;;;5022821;28;20179;-76
2022/06/08 12:48:30;;;;;;;3.67;1.30;;;22.90;99.90;;;;;;5022683;28;20187;-76
2022/06/08 12:50:58;;;;;;;1.38;1.00;;;22.90;99.90;;;;;;5022668;28;20188;-76
2022/06/08 12:53:24;;;;;;;3.80;1.38;;;22.70;99.90;;;;;;5022983;28;20171;-77
2022/06/08 12:55:52;;;;;;;3.92;1.25;;;22.50;99.90;;;;;;5025202;28;20586;-77
2022/06/08 12:58:19;;;;;;;5.10;1.48;;;21.20;99.90;;;;;;5033568;28;20179;-80
2022/06/08 13:00:49;;;;;;;4.75;1.20;;;20.50;99.90;;;;;;5033363;28;20171;-81
2022/06/08 13:03:25;;;;;;;4.70;1.50;;;19.80;99.90;;;;;;5032729;28;20551;-81
2022/06/08 13:05:53;;;;;;;5.07;1.50;;;19.50;99.90;;;;;;5032046;28;20198;-79
2022/06/08 13:08:22;;;;;;;9.05;1.65;;;19.00;99.90;;;;;;5031475;28;20171;-80
2022/06/08 13:10:54;;;;;;;6.20;1.70;;;18.90;99.90;;;;;;5032418;28;20176;-82